createdAt,value
2017-03-20T00:00:28.668Z,52.20
2017-03-20T00:01:32.247Z,52.40
2017-03-20T00:02:27.477Z,52.40
2017-03-20T00:03:27.089Z,52.40
2017-03-20T00:04:35.608Z,52.20
2017-03-20T00:05:30.177Z,52.30
2017-03-20T00:06:28.384Z,52.40
2017-03-20T00:07:32.865Z,52.40
2017-03-20T00:08:20.882Z,52.50
2017-03-20T00:09:28.419Z,52.40
2017-03-20T00:10:36.621Z,52.50
2017-03-20T00:11:37.066Z,52.40
2017-03-20T00:12:30.665Z,52.40
2017-03-20T00:13:23.455Z,52.50
2017-03-20T00:14:36.735Z,52.40
2017-03-20T00:15:30.361Z,52.50
2017-03-20T00:16:33.042Z,52.40
2017-03-20T00:17:23.429Z,52.50
2017-03-20T00:18:38.659Z,52.60
2017-03-20T00:19:31.837Z,52.50
2017-03-20T00:20:27.519Z,52.50
2017-03-20T00:21:20.976Z,52.50
2017-03-20T00:22:27.355Z,52.50
2017-03-20T00:23:27.303Z,52.50
2017-03-20T00:24:37.907Z,52.40
2017-03-20T00:25:27.728Z,53.00
2017-03-20T00:26:27.648Z,52.50
2017-03-20T00:27:32.787Z,52.50
2017-03-20T00:28:26.611Z,52.50
2017-03-20T00:29:28.525Z,52.60
2017-03-20T00:30:33.180Z,52.60
2017-03-20T00:31:27.459Z,is
2017-03-20T00:32:27.000Z,52.60
2017-03-20T00:33:26.626Z,52.50
2017-03-20T00:34:22.871Z,52.50
2017-03-20T00:35:26.200Z,52.50
2017-03-20T00:36:32.210Z,52.60
2017-03-20T00:37:29.287Z,52.70
2017-03-20T00:38:32.802Z,52.50
2017-03-20T00:39:28.492Z,52.50
2017-03-20T00:40:22.752Z,52.50
2017-03-20T00:41:27.044Z,is
2017-03-20T00:42:27.086Z,52.70
2017-03-20T00:43:26.632Z,52.40
2017-03-20T00:44:26.775Z,52.50
2017-03-20T00:45:26.794Z,52.60
2017-03-20T00:46:27.107Z,52.50
2017-03-20T00:47:28.706Z,52.60
2017-03-20T00:48:28.603Z,52.50
2017-03-20T00:49:28.430Z,52.50
2017-03-20T00:50:22.907Z,52.50
2017-03-20T00:51:33.396Z,52.50
2017-03-20T00:52:27.134Z,52.50
2017-03-20T00:53:29.814Z,52.40
2017-03-20T00:54:27.329Z,52.50
2017-03-20T00:55:21.491Z,52.50
2017-03-20T00:56:23.527Z,52.50
2017-03-20T00:57:29.661Z,53.00
2017-03-20T00:58:27.722Z,52.50
2017-03-20T00:59:29.373Z,52.40
2017-03-20T01:00:24.021Z,52.40
2017-03-20T01:01:23.403Z,52.40
2017-03-20T01:02:27.119Z,52.40
2017-03-20T01:03:28.001Z,52.50
2017-03-20T01:04:27.071Z,is
2017-03-20T01:05:26.563Z,is
2017-03-20T01:06:37.119Z,is
2017-03-20T01:07:35.069Z,52.50
2017-03-20T01:08:37.573Z,52.50
2017-03-20T01:09:36.798Z,52.50
2017-03-20T01:10:35.705Z,52.50
2017-03-20T01:11:29.563Z,52.50
2017-03-20T01:12:32.545Z,52.60
2017-03-20T01:13:27.619Z,52.40
2017-03-20T01:14:37.027Z,is
2017-03-20T01:15:39.671Z,52.50
2017-03-20T01:16:32.877Z,52.40
2017-03-20T01:17:26.964Z,52.50
2017-03-20T01:18:28.637Z,52.40
2017-03-20T01:19:38.602Z,52.50
2017-03-20T01:20:33.282Z,52.50
2017-03-20T01:21:29.125Z,52.40
2017-03-20T01:22:28.140Z,52.50
2017-03-20T01:23:22.847Z,52.50
2017-03-20T01:24:27.093Z,52.40
2017-03-20T01:25:29.247Z,52.40
2017-03-20T01:26:20.815Z,52.50
2017-03-20T01:27:31.509Z,52.60
2017-03-20T01:28:41.416Z,52.50
2017-03-20T01:29:29.528Z,52.50
2017-03-20T01:30:26.933Z,52.50
2017-03-20T01:31:27.953Z,52.50
2017-03-20T01:32:43.400Z,52.50
2017-03-20T01:33:38.557Z,52.50
2017-03-20T01:34:21.528Z,52.50
2017-03-20T01:35:28.550Z,52.50
2017-03-20T01:36:27.799Z,52.50
2017-03-20T01:37:26.728Z,52.60
2017-03-20T01:38:21.634Z,52.40
2017-03-20T01:39:37.026Z,52.50
2017-03-20T01:40:27.446Z,52.50
2017-03-20T01:41:27.233Z,is
2017-03-20T01:42:32.797Z,52.50
2017-03-20T01:43:23.018Z,52.50
2017-03-20T01:44:27.790Z,52.60
2017-03-20T01:45:27.259Z,52.50
2017-03-20T01:46:28.346Z,52.50
2017-03-20T01:47:27.911Z,52.50
2017-03-20T01:48:23.468Z,is
2017-03-20T01:49:32.210Z,is
2017-03-20T01:50:25.359Z,52.50
2017-03-20T01:51:21.743Z,52.60
2017-03-20T01:52:29.170Z,52.50
2017-03-20T01:53:32.727Z,52.50
2017-03-20T01:54:31.649Z,52.50
2017-03-20T01:55:30.891Z,52.70
2017-03-20T01:56:32.888Z,52.60
2017-03-20T01:57:27.549Z,52.70
2017-03-20T01:58:28.478Z,52.60
2017-03-20T01:59:21.134Z,52.70
2017-03-20T02:00:32.359Z,52.60
2017-03-20T02:01:27.190Z,52.60
2017-03-20T02:02:26.600Z,52.60
2017-03-20T02:03:33.419Z,52.60
2017-03-20T02:04:28.360Z,52.60
2017-03-20T02:05:33.038Z,52.60
2017-03-20T02:06:32.688Z,52.60
2017-03-20T02:07:33.281Z,52.70
2017-03-20T02:08:28.362Z,52.70
2017-03-20T02:09:22.727Z,52.70
2017-03-20T02:10:21.189Z,52.70
2017-03-20T02:11:21.788Z,52.70
2017-03-20T02:12:31.608Z,52.60
2017-03-20T02:13:27.622Z,52.70
2017-03-20T02:14:23.349Z,52.70
2017-03-20T02:15:26.675Z,52.80
2017-03-20T02:16:28.361Z,52.70
2017-03-20T02:17:32.753Z,52.90
2017-03-20T02:18:30.576Z,52.40
2017-03-20T02:19:25.705Z,52.70
2017-03-20T02:20:27.900Z,is
2017-03-20T02:21:26.763Z,52.80
2017-03-20T02:22:25.032Z,52.80
2017-03-20T02:23:31.128Z,52.80
2017-03-20T02:24:24.111Z,52.80
2017-03-20T02:25:33.554Z,52.60
2017-03-20T02:26:25.631Z,52.70
2017-03-20T02:27:28.625Z,52.70
2017-03-20T02:28:32.790Z,52.70
2017-03-20T02:29:23.387Z,52.60
2017-03-20T02:30:37.927Z,52.70
2017-03-20T02:31:21.337Z,52.60
2017-03-20T02:32:28.597Z,52.60
2017-03-20T02:33:30.337Z,52.60
2017-03-20T02:34:32.666Z,52.70
2017-03-20T02:35:27.040Z,52.60
2017-03-20T02:36:26.669Z,52.60
2017-03-20T02:37:28.070Z,52.70
2017-03-20T02:38:32.262Z,52.80
2017-03-20T02:39:27.672Z,52.70
2017-03-20T02:40:27.683Z,52.70
2017-03-20T02:41:27.671Z,52.70
2017-03-20T02:42:29.455Z,52.70
2017-03-20T02:43:28.774Z,52.80
2017-03-20T02:44:21.139Z,52.80
2017-03-20T02:45:27.415Z,52.90
2017-03-20T02:46:23.776Z,52.70
2017-03-20T02:47:22.619Z,is
2017-03-20T02:48:27.128Z,52.70
2017-03-20T02:49:28.499Z,52.70
2017-03-20T02:50:34.728Z,52.60
2017-03-20T02:51:28.053Z,52.60
2017-03-20T02:52:23.619Z,52.70
2017-03-20T02:53:23.380Z,52.70
2017-03-20T02:54:32.696Z,52.70
2017-03-20T02:55:25.719Z,52.70
2017-03-20T02:56:20.761Z,52.60
2017-03-20T02:57:28.336Z,52.80
2017-03-20T02:58:31.758Z,52.70
2017-03-20T02:59:32.918Z,52.60
2017-03-20T03:00:21.923Z,52.70
2017-03-20T03:01:32.759Z,52.70
2017-03-20T03:02:27.014Z,52.70
2017-03-20T03:03:27.083Z,is
2017-03-20T03:04:37.336Z,52.70
2017-03-20T03:05:33.106Z,is
2017-03-20T03:06:27.050Z,is
2017-03-20T03:07:27.647Z,52.70
2017-03-20T03:08:27.050Z,52.70
2017-03-20T03:09:32.770Z,52.70
2017-03-20T03:10:32.270Z,53.00
2017-03-20T03:11:26.100Z,52.70
2017-03-20T03:12:26.961Z,52.60
2017-03-20T03:13:20.570Z,52.60
2017-03-20T03:14:28.315Z,52.70
2017-03-20T03:15:27.151Z,52.60
2017-03-20T03:16:27.512Z,52.70
2017-03-20T03:17:26.659Z,52.70
2017-03-20T03:18:33.029Z,52.60
2017-03-20T03:19:23.179Z,52.60
2017-03-20T03:20:27.009Z,52.60
2017-03-20T03:21:27.006Z,52.50
2017-03-20T03:22:26.717Z,52.60
2017-03-20T03:23:25.921Z,52.60
2017-03-20T03:24:32.681Z,52.60
2017-03-20T03:25:23.438Z,52.60
2017-03-20T03:26:22.250Z,52.60
2017-03-20T03:27:28.054Z,52.50
2017-03-20T03:28:27.257Z,is
2017-03-20T03:29:26.265Z,52.70
2017-03-20T03:30:20.594Z,52.60
2017-03-20T03:31:27.285Z,52.50
2017-03-20T03:32:22.802Z,52.60
2017-03-20T03:33:27.345Z,52.60
2017-03-20T03:34:27.295Z,52.50
2017-03-20T03:35:28.098Z,52.70
2017-03-20T03:36:32.902Z,52.60
2017-03-20T03:37:27.645Z,52.70
2017-03-20T03:38:27.009Z,52.60
2017-03-20T03:39:29.813Z,52.60
2017-03-20T03:40:30.151Z,52.60
2017-03-20T03:41:25.729Z,52.50
2017-03-20T03:42:25.727Z,52.60
2017-03-20T03:43:30.831Z,52.60
2017-03-20T03:44:27.647Z,52.70
2017-03-20T03:45:27.013Z,52.70
2017-03-20T03:46:28.287Z,52.70
2017-03-20T03:47:31.427Z,52.80
2017-03-20T03:48:27.618Z,52.80
2017-03-20T03:49:23.007Z,52.50
2017-03-20T03:50:29.902Z,52.80
2017-03-20T03:51:31.451Z,52.70
2017-03-20T03:52:36.545Z,52.70
2017-03-20T03:53:30.797Z,52.70
2017-03-20T03:54:27.124Z,52.80
2017-03-20T03:55:37.347Z,52.70
2017-03-20T03:56:27.148Z,52.80
2017-03-20T03:57:28.601Z,52.60
2017-03-20T03:58:32.910Z,52.70
2017-03-20T03:59:26.227Z,52.10
2017-03-20T04:00:28.569Z,52.60
2017-03-20T04:01:27.032Z,52.80
2017-03-20T04:02:27.032Z,is
2017-03-20T04:03:27.158Z,52.60
2017-03-20T04:04:26.692Z,52.80
2017-03-20T04:05:27.092Z,52.70
2017-03-20T04:06:26.773Z,is
2017-03-20T04:07:22.639Z,52.70
2017-03-20T04:08:22.879Z,52.70
2017-03-20T04:09:25.796Z,52.80
2017-03-20T04:10:32.741Z,52.80
2017-03-20T04:11:32.874Z,52.80
2017-03-20T04:12:32.741Z,52.80
2017-03-20T04:13:26.140Z,is
2017-03-20T04:14:25.858Z,52.70
2017-03-20T04:15:26.328Z,52.70
2017-03-20T04:16:22.509Z,is
2017-03-20T04:17:30.865Z,52.80
2017-03-20T04:18:38.229Z,52.70
2017-03-20T04:19:21.316Z,52.80
2017-03-20T04:20:31.798Z,52.80
2017-03-20T04:21:28.727Z,52.90
2017-03-20T04:22:20.540Z,52.80
2017-03-20T04:23:28.104Z,52.70
2017-03-20T04:24:35.076Z,52.90
2017-03-20T04:25:21.373Z,is
2017-03-20T04:26:26.775Z,52.90
2017-03-20T04:27:28.602Z,52.80
2017-03-20T04:28:22.589Z,52.90
2017-03-20T04:29:25.287Z,52.80
2017-03-20T04:30:31.505Z,53.10
2017-03-20T04:31:32.693Z,52.90
2017-03-20T04:32:27.048Z,52.80
2017-03-20T04:33:22.546Z,52.80
2017-03-20T04:34:27.833Z,52.80
2017-03-20T04:35:22.832Z,52.90
2017-03-20T04:36:30.042Z,52.80
2017-03-20T04:37:25.458Z,53.00
2017-03-20T04:38:27.152Z,52.80
2017-03-20T04:39:26.946Z,52.90
2017-03-20T04:40:27.050Z,52.90
2017-03-20T04:41:27.954Z,53.00
2017-03-20T04:42:32.738Z,52.90
2017-03-20T04:43:23.307Z,53.00
2017-03-20T04:44:28.121Z,52.90
2017-03-20T04:45:32.285Z,52.80
2017-03-20T04:46:28.299Z,52.90
2017-03-20T04:47:24.354Z,53.00
2017-03-20T04:48:25.362Z,52.90
2017-03-20T04:49:26.907Z,53.00
2017-03-20T04:50:23.170Z,52.90
2017-03-20T04:51:22.836Z,53.00
2017-03-20T04:52:38.207Z,53.00
2017-03-20T04:53:30.536Z,53.10
2017-03-20T04:54:27.429Z,53.10
2017-03-20T04:55:32.750Z,53.10
2017-03-20T04:56:28.167Z,53.00
2017-03-20T04:57:36.088Z,53.10
2017-03-20T04:58:29.654Z,53.20
2017-03-20T04:59:25.474Z,53.10
2017-03-20T05:00:26.804Z,53.30
2017-03-20T05:01:22.390Z,is
2017-03-20T05:02:27.030Z,53.10
2017-03-20T05:03:37.931Z,53.20
2017-03-20T05:04:26.263Z,53.20
2017-03-20T05:05:27.861Z,53.10
2017-03-20T05:06:36.127Z,53.20
2017-03-20T05:07:22.786Z,53.20
2017-03-20T05:08:22.650Z,53.20
2017-03-20T05:09:21.791Z,53.10
2017-03-20T05:10:28.299Z,53.20
2017-03-20T05:11:22.871Z,53.20
2017-03-20T05:12:27.365Z,53.00
2017-03-20T05:13:22.600Z,53.00
2017-03-20T05:14:24.060Z,53.10
2017-03-20T05:15:28.613Z,53.20
2017-03-20T05:16:32.991Z,53.20
2017-03-20T05:17:27.246Z,53.10
2017-03-20T05:18:37.037Z,53.30
2017-03-20T05:19:27.068Z,53.30
2017-03-20T05:20:24.347Z,53.30
2017-03-20T05:21:30.154Z,53.50
2017-03-20T05:22:27.656Z,is
2017-03-20T05:23:27.611Z,53.40
2017-03-20T05:24:27.213Z,53.50
2017-03-20T05:25:26.613Z,is
2017-03-20T05:26:21.319Z,53.60
2017-03-20T05:27:43.476Z,53.50
2017-03-20T05:28:26.648Z,53.70
2017-03-20T05:29:27.483Z,is
2017-03-20T05:30:33.167Z,53.80
2017-03-20T05:31:32.881Z,53.80
2017-03-20T05:32:31.427Z,53.90
2017-03-20T05:33:27.481Z,is
2017-03-20T05:34:32.449Z,54.00
2017-03-20T05:35:27.018Z,53.80
2017-03-20T05:36:21.994Z,53.90
2017-03-20T05:37:28.116Z,54.00
2017-03-20T05:38:28.925Z,53.80
2017-03-20T05:39:27.189Z,53.90
2017-03-20T05:40:32.724Z,53.90
2017-03-20T05:41:27.112Z,53.20
2017-03-20T05:42:32.587Z,53.80
2017-03-20T05:43:32.683Z,54.20
2017-03-20T05:44:30.380Z,54.00
2017-03-20T05:45:27.224Z,is
2017-03-20T05:46:26.991Z,53.90
2017-03-20T05:47:27.982Z,54.00
2017-03-20T05:48:27.003Z,54.00
2017-03-20T05:49:22.162Z,54.00
2017-03-20T05:50:32.907Z,is
2017-03-20T05:51:27.666Z,54.00
2017-03-20T05:52:32.716Z,54.00
2017-03-20T05:53:26.934Z,54.00
2017-03-20T05:54:27.157Z,54.00
2017-03-20T05:55:22.591Z,54.00
2017-03-20T05:56:25.905Z,54.00
2017-03-20T05:57:21.377Z,53.90
2017-03-20T05:58:32.908Z,53.90
2017-03-20T05:59:27.198Z,54.00
2017-03-20T06:00:23.149Z,53.90
2017-03-20T06:01:27.681Z,54.00
2017-03-20T06:02:26.529Z,53.90
2017-03-20T06:03:34.026Z,53.90
2017-03-20T06:04:27.033Z,53.90
2017-03-20T06:05:30.337Z,53.90
2017-03-20T06:06:25.497Z,53.80
2017-03-20T06:07:31.455Z,54.00
2017-03-20T06:08:23.438Z,53.80
2017-03-20T06:09:34.738Z,53.80
2017-03-20T06:10:23.176Z,is
2017-03-20T06:11:35.379Z,53.90
2017-03-20T06:12:29.090Z,53.90
2017-03-20T06:13:25.712Z,53.90
2017-03-20T06:14:23.152Z,54.00
2017-03-20T06:15:33.668Z,54.00
2017-03-20T06:16:28.896Z,54.00
2017-03-20T06:17:24.910Z,54.00
2017-03-20T06:18:26.606Z,54.00
2017-03-20T06:19:37.681Z,54.00
2017-03-20T06:20:36.583Z,54.00
2017-03-20T06:21:31.555Z,54.00
2017-03-20T06:22:20.844Z,54.10
2017-03-20T06:23:27.015Z,54.00
2017-03-20T06:24:32.340Z,54.10
2017-03-20T06:25:28.778Z,54.00
2017-03-20T06:26:28.516Z,54.10
2017-03-20T06:27:32.996Z,54.20
2017-03-20T06:28:27.211Z,is
2017-03-20T06:29:35.190Z,54.50
2017-03-20T06:30:34.260Z,54.50
2017-03-20T06:31:24.872Z,54.90
2017-03-20T06:32:42.969Z,55.00
2017-03-20T06:33:31.706Z,55.10
2017-03-20T06:34:39.251Z,55.10
2017-03-20T06:35:21.951Z,55.00
2017-03-20T06:36:27.941Z,55.10
2017-03-20T06:37:27.030Z,55.10
2017-03-20T06:38:23.954Z,55.20
2017-03-20T06:39:25.908Z,55.10
2017-03-20T06:40:27.083Z,is
2017-03-20T06:41:25.626Z,55.00
2017-03-20T06:42:32.615Z,55.10
2017-03-20T06:43:16.202Z,54.90
2017-03-20T06:44:22.708Z,55.00
2017-03-20T06:45:28.086Z,55.00
2017-03-20T06:46:26.632Z,55.00
2017-03-20T06:47:23.444Z,is
2017-03-20T06:48:28.544Z,54.60
2017-03-20T06:49:28.735Z,54.50
2017-03-20T06:50:36.440Z,54.40
2017-03-20T06:51:27.170Z,54.40
2017-03-20T06:52:36.714Z,54.20
2017-03-20T06:53:27.274Z,54.10
2017-03-20T06:54:26.985Z,53.90
2017-03-20T06:55:27.697Z,53.90
2017-03-20T06:56:22.981Z,53.60
2017-03-20T06:57:37.763Z,53.10
2017-03-20T06:58:26.828Z,52.70
2017-03-20T06:59:28.235Z,53.00
2017-03-20T07:00:28.541Z,53.00
2017-03-20T07:01:37.579Z,53.30
2017-03-20T07:02:28.650Z,53.40
2017-03-20T07:03:26.621Z,53.50
2017-03-20T07:04:31.402Z,53.50
2017-03-20T07:05:32.956Z,53.50
2017-03-20T07:06:27.397Z,is
2017-03-20T07:07:27.237Z,53.50
2017-03-20T07:08:33.207Z,53.30
2017-03-20T07:09:28.262Z,53.20
2017-03-20T07:10:27.057Z,53.20
2017-03-20T07:11:24.706Z,53.00
2017-03-20T07:12:25.976Z,53.00
2017-03-20T07:13:31.317Z,52.80
2017-03-20T07:14:42.004Z,52.70
2017-03-20T07:15:27.223Z,52.60
2017-03-20T07:16:21.933Z,52.50
2017-03-20T07:17:37.669Z,52.50
2017-03-20T07:18:28.266Z,52.20
2017-03-20T07:19:29.269Z,52.00
2017-03-20T07:20:28.528Z,52.00
2017-03-20T07:21:22.773Z,52.00
2017-03-20T07:22:32.958Z,52.40
2017-03-20T07:23:25.622Z,52.00
2017-03-20T07:24:25.374Z,51.90
2017-03-20T07:25:31.480Z,51.90
2017-03-20T07:26:36.567Z,51.90
2017-03-20T07:27:37.226Z,51.90
2017-03-20T07:28:37.147Z,51.90
2017-03-20T07:29:23.318Z,51.90
2017-03-20T07:30:39.270Z,52.00
2017-03-20T07:31:23.540Z,52.00
2017-03-20T07:32:31.020Z,52.00
2017-03-20T07:33:27.724Z,51.90
2017-03-20T07:34:43.019Z,52.00
2017-03-20T07:35:31.453Z,51.90
2017-03-20T07:36:31.630Z,51.90
2017-03-20T07:37:31.301Z,51.90
2017-03-20T07:38:29.288Z,is
2017-03-20T07:39:27.076Z,is
2017-03-20T07:40:27.177Z,is
2017-03-20T07:41:26.800Z,51.80
2017-03-20T07:42:28.731Z,51.80
2017-03-20T07:43:27.089Z,51.90
2017-03-20T07:44:28.395Z,51.90
2017-03-20T07:45:34.481Z,51.90
2017-03-20T07:46:30.121Z,51.70
2017-03-20T07:47:28.468Z,51.60
2017-03-20T07:48:37.073Z,51.70
2017-03-20T07:49:37.226Z,51.70
2017-03-20T07:50:31.140Z,51.80
2017-03-20T07:51:27.742Z,51.70
2017-03-20T07:52:28.661Z,51.70
2017-03-20T07:53:23.536Z,51.70
2017-03-20T07:54:27.925Z,51.70
2017-03-20T07:55:28.026Z,51.70
2017-03-20T07:56:32.716Z,51.60
2017-03-20T07:57:28.744Z,51.60
2017-03-20T07:58:25.707Z,51.60
2017-03-20T07:59:32.390Z,51.60
2017-03-20T08:00:32.008Z,51.80
2017-03-20T08:01:31.997Z,51.60
2017-03-20T08:02:27.987Z,51.70
2017-03-20T08:03:22.460Z,51.60
2017-03-20T08:04:33.059Z,51.60
2017-03-20T08:05:23.554Z,51.80
2017-03-20T08:06:32.136Z,51.80
2017-03-20T08:07:22.809Z,51.70
2017-03-20T08:08:27.059Z,51.70
2017-03-20T08:09:36.614Z,51.80
2017-03-20T08:10:37.529Z,51.70
2017-03-20T08:11:31.886Z,51.80
2017-03-20T08:12:26.100Z,51.70
2017-03-20T08:13:26.104Z,51.80
2017-03-20T08:14:38.734Z,51.70
2017-03-20T09:05:03.614Z,51.90
2017-03-20T09:05:18.819Z,51.80
2017-03-20T09:05:44.684Z,51.90
2017-03-20T09:06:32.842Z,51.90
2017-03-20T09:07:27.726Z,52.00
2017-03-20T09:08:33.500Z,51.90
2017-03-20T09:09:27.120Z,52.10
2017-03-20T09:10:20.978Z,52.00
2017-03-20T09:11:25.534Z,52.00
2017-03-20T09:12:28.734Z,52.00
2017-03-20T09:13:41.598Z,52.00
2017-03-20T09:14:30.507Z,52.10
2017-03-20T09:15:22.660Z,52.00
2017-03-20T09:16:21.355Z,52.10
2017-03-20T09:17:27.401Z,is
2017-03-20T09:18:37.457Z,52.00
2017-03-20T09:19:27.235Z,is
2017-03-20T09:20:33.012Z,51.90
2017-03-20T09:21:27.385Z,52.00
2017-03-20T09:22:33.385Z,52.00
2017-03-20T09:23:33.481Z,51.90
2017-03-20T09:24:31.510Z,52.00
2017-03-20T09:25:27.274Z,51.90
2017-03-20T09:26:29.384Z,51.00
2017-03-20T09:27:35.854Z,51.70
2017-03-20T09:28:33.583Z,51.90
2017-03-20T09:29:33.114Z,51.90
2017-03-20T09:30:43.583Z,51.70
2017-03-20T09:31:32.615Z,51.70
2017-03-20T09:32:22.896Z,51.80
2017-03-20T09:33:23.459Z,51.90
2017-03-20T09:34:36.676Z,51.80
2017-03-20T09:35:31.941Z,51.90
2017-03-20T09:36:38.272Z,51.90
2017-03-20T09:37:28.308Z,52.00
2017-03-20T09:38:26.329Z,51.90
2017-03-20T09:39:25.694Z,51.90
2017-03-20T09:40:42.818Z,51.90
2017-03-20T09:41:37.349Z,51.90
2017-03-20T09:42:41.861Z,52.00
2017-03-20T09:43:21.414Z,51.90
2017-03-20T09:44:28.471Z,51.90
2017-03-20T09:45:27.714Z,51.90
2017-03-20T09:46:32.224Z,51.90
2017-03-20T09:47:28.630Z,51.90
2017-03-20T09:48:26.935Z,52.00
2017-03-20T09:49:30.499Z,51.90
2017-03-20T09:50:38.647Z,51.90
2017-03-20T09:51:23.480Z,51.90
2017-03-20T09:52:22.657Z,51.90
2017-03-20T09:53:33.413Z,52.50
2017-03-20T09:54:32.522Z,52.00
2017-03-20T09:55:28.565Z,52.00
2017-03-20T09:56:28.700Z,51.90
2017-03-20T09:57:22.663Z,51.90
2017-03-20T09:58:23.158Z,52.00
2017-03-20T09:59:40.094Z,51.90
2017-03-20T10:00:23.432Z,51.90
2017-03-20T10:01:24.245Z,51.90
2017-03-20T10:02:26.156Z,52.00
2017-03-20T10:03:36.809Z,52.00
2017-03-20T10:04:34.986Z,52.00
2017-03-20T10:05:26.430Z,51.80
2017-03-20T10:06:28.600Z,51.90
2017-03-20T10:07:28.584Z,51.80
2017-03-20T10:08:23.033Z,51.80
2017-03-20T10:09:23.533Z,51.80
2017-03-20T10:10:21.487Z,is
2017-03-20T10:11:27.578Z,51.70
2017-03-20T10:12:32.932Z,51.80
2017-03-20T10:13:23.700Z,51.80
2017-03-20T10:14:21.972Z,51.80
2017-03-20T10:15:36.231Z,51.60
2017-03-20T10:16:29.285Z,51.70
2017-03-20T10:17:28.812Z,51.80
2017-03-20T10:18:29.146Z,51.80
2017-03-20T10:19:22.818Z,51.70
2017-03-20T10:20:29.306Z,51.70
2017-03-20T10:21:28.616Z,51.90
2017-03-20T10:22:33.031Z,51.80
2017-03-20T10:23:32.694Z,51.90
2017-03-20T10:24:31.394Z,51.70
2017-03-20T10:25:32.830Z,is
2017-03-20T10:26:26.991Z,is
2017-03-20T10:27:37.835Z,51.80
2017-03-20T10:28:26.112Z,51.80
2017-03-20T10:29:32.882Z,51.70
2017-03-20T10:30:36.961Z,51.90
2017-03-20T10:31:35.282Z,51.70
2017-03-20T10:32:27.022Z,51.70
2017-03-20T10:33:31.769Z,51.70
2017-03-20T10:34:31.455Z,51.70
2017-03-20T10:35:26.889Z,51.70
2017-03-20T10:36:37.431Z,51.80
2017-03-20T10:37:22.513Z,51.60
2017-03-20T10:38:27.178Z,51.60
2017-03-20T10:39:28.648Z,51.70
2017-03-20T10:40:25.565Z,51.80
2017-03-20T10:41:28.524Z,51.70
2017-03-20T10:42:25.054Z,51.70
2017-03-20T10:43:22.988Z,is
2017-03-20T10:44:21.514Z,51.70
2017-03-20T10:45:27.620Z,51.70
2017-03-20T10:46:21.740Z,51.60
2017-03-20T10:47:21.767Z,51.60
2017-03-20T10:48:37.217Z,51.50
2017-03-20T10:49:33.119Z,51.10
2017-03-20T10:50:28.465Z,51.50
2017-03-20T10:51:28.560Z,51.60
2017-03-20T10:52:32.695Z,51.60
2017-03-20T10:53:26.960Z,51.60
2017-03-20T10:54:28.349Z,51.50
2017-03-20T10:55:27.384Z,is
2017-03-20T10:56:26.785Z,51.60
2017-03-20T10:57:26.967Z,51.50
2017-03-20T10:58:27.208Z,51.60
2017-03-20T10:59:26.965Z,51.50
2017-03-20T11:00:24.974Z,51.50
2017-03-20T11:01:33.580Z,51.50
2017-03-20T11:02:43.545Z,51.50
2017-03-20T11:03:32.203Z,is
2017-03-20T11:04:27.316Z,51.50
2017-03-20T11:05:23.842Z,51.50
2017-03-20T11:06:28.114Z,51.50
2017-03-20T11:07:27.283Z,51.60
2017-03-20T11:08:32.422Z,51.50
2017-03-20T11:09:27.228Z,51.60
2017-03-20T11:10:37.652Z,51.60
2017-03-20T11:11:36.625Z,51.60
2017-03-20T11:12:27.348Z,is
2017-03-20T11:13:32.044Z,51.50
2017-03-20T11:14:37.093Z,51.60
2017-03-20T11:15:36.395Z,51.50
2017-03-20T11:16:32.215Z,51.50
2017-03-20T11:17:22.895Z,51.60
2017-03-20T11:18:34.962Z,51.70
2017-03-20T11:19:27.034Z,is
2017-03-20T11:20:26.983Z,is
2017-03-20T11:21:26.361Z,51.60
2017-03-20T11:22:22.919Z,51.50
2017-03-20T11:23:37.818Z,51.50
2017-03-20T11:24:37.708Z,52.00
2017-03-20T11:25:27.224Z,51.50
2017-03-20T11:26:31.099Z,51.60
2017-03-20T11:27:32.838Z,51.50
2017-03-20T11:28:22.827Z,51.50
2017-03-20T11:29:26.980Z,51.50
2017-03-20T11:30:26.991Z,51.60
2017-03-20T11:31:35.834Z,51.50
2017-03-20T11:32:25.839Z,51.50
2017-03-20T11:33:31.076Z,51.50
2017-03-20T11:34:33.082Z,51.50
2017-03-20T11:35:26.186Z,51.60
2017-03-20T11:36:33.191Z,51.50
2017-03-20T11:37:41.237Z,51.50
2017-03-20T11:38:23.372Z,51.50
2017-03-20T11:39:33.342Z,51.50
2017-03-20T11:40:27.426Z,is
2017-03-20T11:41:27.283Z,51.50
2017-03-20T11:42:30.993Z,51.50
2017-03-20T11:43:37.012Z,51.50
2017-03-20T11:44:28.540Z,51.40
2017-03-20T11:45:26.946Z,51.50
2017-03-20T11:46:26.129Z,51.50
2017-03-20T11:47:32.665Z,51.50
2017-03-20T11:48:32.750Z,51.50
2017-03-20T11:49:26.571Z,51.50
2017-03-20T11:50:34.479Z,51.50
2017-03-20T11:51:28.610Z,51.50
2017-03-20T11:52:30.768Z,51.50
2017-03-20T11:53:35.962Z,51.50
2017-03-20T11:54:37.366Z,51.50
2017-03-20T11:55:26.128Z,51.00
2017-03-20T11:56:21.364Z,is
2017-03-20T11:57:33.056Z,51.50
2017-03-20T11:58:29.070Z,51.60
2017-03-20T11:59:28.232Z,51.50
2017-03-20T12:00:28.267Z,51.50
2017-03-20T12:01:33.335Z,51.50
2017-03-20T12:02:32.604Z,51.50
2017-03-20T12:03:32.694Z,51.60
2017-03-20T12:04:35.833Z,51.60
2017-03-20T12:05:36.931Z,51.50
2017-03-20T12:06:36.398Z,51.60
2017-03-20T12:07:40.528Z,51.40
2017-03-20T12:08:37.932Z,51.60
2017-03-20T12:09:22.657Z,51.70
2017-03-20T12:10:27.193Z,is
2017-03-20T12:11:37.633Z,51.50
2017-03-20T12:12:43.479Z,51.60
2017-03-20T12:13:36.633Z,51.50
2017-03-20T12:14:28.648Z,51.50
2017-03-20T12:15:25.881Z,51.60
2017-03-20T12:16:36.961Z,51.50
2017-03-20T12:17:37.486Z,51.50
2017-03-20T12:18:36.499Z,51.50
2017-03-20T12:19:25.831Z,is
2017-03-20T12:20:38.560Z,51.50
2017-03-20T12:21:36.180Z,51.50
2017-03-20T12:22:35.810Z,51.60
2017-03-20T12:23:43.017Z,51.50
2017-03-20T12:24:36.977Z,51.50
2017-03-20T12:25:29.580Z,51.50
2017-03-20T12:26:37.120Z,51.50
2017-03-20T12:27:36.987Z,51.50
2017-03-20T12:28:27.565Z,51.60
2017-03-20T12:29:37.046Z,51.50
2017-03-20T12:30:37.608Z,50.60
2017-03-20T12:31:26.630Z,51.50
2017-03-20T12:32:38.994Z,51.50
2017-03-20T12:33:37.256Z,51.50
2017-03-20T12:34:31.584Z,51.50
2017-03-20T12:35:39.525Z,51.50
2017-03-20T12:36:27.009Z,51.50
2017-03-20T12:37:28.885Z,51.50
2017-03-20T12:38:37.004Z,51.50
2017-03-20T12:39:36.203Z,51.50
2017-03-20T12:40:22.894Z,51.50
2017-03-20T12:41:27.687Z,51.50
2017-03-20T12:42:31.116Z,51.50
2017-03-20T12:43:37.012Z,51.50
2017-03-20T12:44:37.002Z,51.50
2017-03-20T12:45:37.603Z,51.50
2017-03-20T12:46:23.220Z,51.40
2017-03-20T12:47:24.931Z,51.40
2017-03-20T12:48:36.983Z,51.50
2017-03-20T12:49:29.415Z,51.40
2017-03-20T12:50:37.045Z,51.40
2017-03-20T12:51:36.563Z,51.40
2017-03-20T12:52:30.713Z,51.50
2017-03-20T12:53:28.737Z,51.40
2017-03-20T12:54:27.008Z,51.50
2017-03-20T12:55:38.445Z,51.40
2017-03-20T12:56:42.000Z,51.40
2017-03-20T12:57:35.272Z,51.30
2017-03-20T12:58:20.711Z,51.50
2017-03-20T12:59:32.901Z,51.30
2017-03-20T13:00:31.749Z,51.40
2017-03-20T13:01:33.390Z,51.40
2017-03-20T13:02:33.451Z,51.40
2017-03-20T13:03:28.524Z,51.40
2017-03-20T13:04:27.457Z,51.40
2017-03-20T13:05:33.349Z,51.40
2017-03-20T13:06:32.656Z,51.30
2017-03-20T13:07:33.460Z,51.40
2017-03-20T13:08:29.713Z,51.30
2017-03-20T13:09:21.167Z,51.30
2017-03-20T13:10:27.660Z,51.20
2017-03-20T13:11:21.513Z,51.30
2017-03-20T13:12:26.967Z,51.40
2017-03-20T13:13:23.183Z,51.40
2017-03-20T13:14:37.019Z,51.30
2017-03-20T13:15:36.950Z,51.30
2017-03-20T13:16:41.596Z,51.40
2017-03-20T13:17:31.662Z,is
2017-03-20T13:18:32.750Z,51.30
2017-03-20T13:19:31.729Z,51.30
2017-03-20T13:20:32.784Z,51.30
2017-03-20T13:21:37.060Z,51.40
2017-03-20T13:22:37.627Z,51.40
2017-03-20T13:23:30.925Z,51.40
2017-03-20T13:24:26.944Z,51.30
2017-03-20T13:25:33.096Z,51.30
2017-03-20T13:26:22.971Z,51.40
2017-03-20T13:27:34.433Z,51.40
2017-03-20T13:28:32.740Z,51.30
2017-03-20T13:29:27.909Z,51.40
2017-03-20T13:30:32.805Z,51.30
2017-03-20T13:31:37.012Z,51.40
2017-03-20T13:32:37.012Z,51.30
2017-03-20T13:33:27.111Z,51.50
2017-03-20T13:34:31.848Z,51.40
2017-03-20T13:35:38.081Z,51.40
2017-03-20T13:36:26.259Z,51.50
2017-03-20T13:37:22.825Z,51.50
2017-03-20T13:38:32.235Z,51.40
2017-03-20T13:39:33.236Z,51.50
2017-03-20T13:40:32.732Z,51.40
2017-03-20T13:41:21.941Z,51.40
2017-03-20T13:42:32.742Z,51.50
2017-03-20T13:43:29.552Z,51.30
2017-03-20T13:44:32.889Z,51.30
2017-03-20T13:45:37.198Z,51.30